createdAt,value
2023-11-01T00:01:30.707Z,98.61
2023-11-01T00:03:58.595Z,98.48
2023-11-01T00:06:27.740Z,98.40
2023-11-01T00:08:56.717Z,99.11
2023-11-01T00:11:24.853Z,99.08
2023-11-01T00:13:52.622Z,99.13
2023-11-01T00:16:20.496Z,99.62
2023-11-01T00:18:48.225Z,99.63
2023-11-01T00:21:16.211Z,99.09
2023-11-01T00:23:45.421Z,99.91
2023-11-01T00:26:13.218Z,99.74
2023-11-01T00:28:40.997Z,99.52
2023-11-01T00:31:09.075Z,99.08
2023-11-01T00:33:37.484Z,99.67
2023-11-01T00:36:06.166Z,99.66
2023-11-01T00:38:36.788Z,99.57
2023-11-01T00:41:06.721Z,100.00
2023-11-01T00:43:34.630Z,100.00
2023-11-01T00:46:03.361Z,100.00
2023-11-01T00:48:31.227Z,100.00
2023-11-01T00:51:01.383Z,100.00
2023-11-01T00:53:32.272Z,100.00
2023-11-01T00:56:00.159Z,100.00
2023-11-01T00:58:29.196Z,100.00
2023-11-01T01:00:56.913Z,100.00
2023-11-01T01:03:24.864Z,100.00
2023-11-01T01:05:52.669Z,100.00
2023-11-01T01:08:20.462Z,100.00
2023-11-01T01:10:48.527Z,100.00
2023-11-01T01:13:16.718Z,100.00
2023-11-01T01:15:45.876Z,100.00
2023-11-01T01:18:15.753Z,100.00
2023-11-01T01:20:43.609Z,100.00
2023-11-01T01:23:11.437Z,100.00
2023-11-01T01:25:39.132Z,100.00
2023-11-01T01:28:06.946Z,100.00
2023-11-01T01:30:34.733Z,100.00
2023-11-01T01:33:03.991Z,100.00
2023-11-01T01:35:32.153Z,100.00
2023-11-01T01:38:00.049Z,100.00
2023-11-01T01:40:28.067Z,100.00
2023-11-01T01:42:55.905Z,100.00
2023-11-01T01:45:23.754Z,100.00
2023-11-01T01:47:51.557Z,100.00
2023-11-01T01:50:22.384Z,100.00
2023-11-01T01:52:53.097Z,100.00
2023-11-01T01:55:20.705Z,100.00
2023-11-01T01:57:48.412Z,100.00
2023-11-01T02:00:17.300Z,100.00
2023-11-01T02:02:45.274Z,100.00
2023-11-01T02:05:15.638Z,100.00
2023-11-01T02:07:45.619Z,100.00
2023-11-01T02:10:15.287Z,100.00
2023-11-01T02:12:42.955Z,100.00
2023-11-01T02:15:10.910Z,100.00
2023-11-01T02:17:40.690Z,100.00
2023-11-01T02:20:11.761Z,100.00
2023-11-01T02:22:40.039Z,100.00
2023-11-01T02:25:09.949Z,100.00
2023-11-01T02:27:37.850Z,100.00
2023-11-01T02:30:06.288Z,100.00
2023-11-01T02:32:36.518Z,100.00
2023-11-01T02:35:06.238Z,100.00
2023-11-01T02:37:37.073Z,100.00
2023-11-01T02:40:05.050Z,100.00
2023-11-01T02:42:34.169Z,100.00
2023-11-01T02:45:01.840Z,100.00
2023-11-01T02:47:31.982Z,100.00
2023-11-01T02:49:59.572Z,100.00
2023-11-01T02:52:27.210Z,100.00
2023-11-01T02:54:54.976Z,99.43
2023-11-01T02:57:24.740Z,99.18
2023-11-01T02:59:54.733Z,99.28
2023-11-01T03:02:22.360Z,99.16
2023-11-01T03:04:49.968Z,99.21
2023-11-01T03:07:17.520Z,99.15
2023-11-01T03:09:45.251Z,99.36
2023-11-01T03:12:12.899Z,99.24
2023-11-01T03:14:40.587Z,99.15
2023-11-01T03:17:10.830Z,99.16
2023-11-01T03:19:39.165Z,98.53
2023-11-01T03:22:07.191Z,98.17
2023-11-01T03:24:35.360Z,98.30
2023-11-01T03:27:02.983Z,98.40
2023-11-01T03:29:31.151Z,98.77
2023-11-01T03:31:58.801Z,98.77
2023-11-01T03:34:27.772Z,98.45
2023-11-01T03:36:55.356Z,98.71
2023-11-01T03:39:22.935Z,98.60
2023-11-01T03:41:50.549Z,98.55
2023-11-01T03:44:20.797Z,98.85
2023-11-01T03:46:48.690Z,98.95
2023-11-01T03:49:18.523Z,99.16
2023-11-01T03:51:47.490Z,99.29
2023-11-01T03:54:15.047Z,99.17
2023-11-01T03:56:45.680Z,98.76
2023-11-01T03:59:13.545Z,98.73
2023-11-01T04:01:41.256Z,99.21
2023-11-01T04:04:09.196Z,98.91
2023-11-01T04:06:38.454Z,99.09
2023-11-01T04:09:08.794Z,99.09
2023-11-01T04:11:39.156Z,99.29
2023-11-01T04:14:08.117Z,99.34
2023-11-01T04:16:38.196Z,99.53
2023-11-01T04:19:07.162Z,98.97
2023-11-01T04:21:34.866Z,98.97
2023-11-01T04:24:10.828Z,99.60
2023-11-01T04:26:40.519Z,99.67
2023-11-01T04:29:08.426Z,99.75
2023-11-01T04:31:36.075Z,100.00
2023-11-01T04:34:04.085Z,100.00
2023-11-01T04:36:31.892Z,100.00
2023-11-01T04:38:59.837Z,100.00
2023-11-01T04:41:29.572Z,100.00
2023-11-01T04:43:57.318Z,100.00
2023-11-01T04:46:25.131Z,100.00
2023-11-01T04:48:52.819Z,100.00
2023-11-01T04:51:20.733Z,100.00
2023-11-01T04:53:49.466Z,100.00
2023-11-01T04:56:17.145Z,100.00
2023-11-01T04:58:46.074Z,100.00
2023-11-01T05:01:14.295Z,100.00
2023-11-01T05:03:42.001Z,100.00
2023-11-01T05:06:10.201Z,100.00
2023-11-01T05:08:37.825Z,100.00
2023-11-01T05:11:06.425Z,100.00
2023-11-01T05:13:34.178Z,100.00
2023-11-01T05:16:03.159Z,100.00
2023-11-01T05:18:30.779Z,100.00
2023-11-01T05:20:58.413Z,100.00
2023-11-01T05:23:26.035Z,100.00
2023-11-01T05:25:53.673Z,100.00
2023-11-01T05:28:21.272Z,100.00
2023-11-01T05:30:48.909Z,100.00
2023-11-01T05:33:20.749Z,100.00
2023-11-01T05:35:49.738Z,100.00
2023-11-01T05:38:17.321Z,100.00
2023-11-01T05:40:44.989Z,100.00
2023-11-01T05:43:12.623Z,100.00
2023-11-01T05:45:40.174Z,100.00
2023-11-01T05:48:09.980Z,100.00
2023-11-01T05:50:41.850Z,100.00
2023-11-01T05:53:11.810Z,100.00
2023-11-01T05:55:54.242Z,100.00
2023-11-01T05:58:27.629Z,100.00
2023-11-01T06:00:55.498Z,100.00
2023-11-01T06:03:26.229Z,100.00
2023-11-01T06:05:59.167Z,100.00
2023-11-01T06:08:27.687Z,100.00
2023-11-01T06:10:55.797Z,100.00
2023-11-01T06:13:23.469Z,100.00
2023-11-01T06:15:52.753Z,100.00
2023-11-01T06:18:22.011Z,99.95
2023-11-01T06:20:49.688Z,99.43
2023-11-01T06:23:18.811Z,99.10
2023-11-01T06:25:46.528Z,99.23
2023-11-01T06:28:14.140Z,99.11
2023-11-01T06:30:42.026Z,99.13
2023-11-01T06:33:10.071Z,99.26
2023-11-01T06:35:38.383Z,98.92
2023-11-01T06:38:06.141Z,99.12
2023-11-01T06:40:35.371Z,99.88
2023-11-01T06:43:02.995Z,100.00
2023-11-01T06:45:30.656Z,99.71
2023-11-01T06:47:58.362Z,99.65
2023-11-01T06:50:26.058Z,99.44
2023-11-01T06:52:53.637Z,99.33
2023-11-01T06:55:21.272Z,99.46
2023-11-01T06:57:50.239Z,100.00
2023-11-01T07:00:17.927Z,100.00
2023-11-01T07:02:45.622Z,99.88
2023-11-01T07:05:13.292Z,100.00
2023-11-01T07:07:40.882Z,100.00
2023-11-01T07:10:11.449Z,100.00
2023-11-01T07:12:39.267Z,99.60
2023-11-01T07:15:11.148Z,99.90
2023-11-01T07:17:38.877Z,100.00
2023-11-01T07:20:07.840Z,100.00
2023-11-01T07:22:35.473Z,100.00
2023-11-01T07:25:03.242Z,100.00
2023-11-01T07:27:31.045Z,100.00
2023-11-01T07:29:58.877Z,100.00
2023-11-01T07:32:27.855Z,100.00
2023-11-01T07:34:55.478Z,100.00
2023-11-01T07:37:23.120Z,100.00
2023-11-01T07:39:50.725Z,100.00
2023-11-01T07:42:18.433Z,100.00
2023-11-01T07:44:46.223Z,100.00
2023-11-01T07:47:14.735Z,100.00
2023-11-01T07:49:43.796Z,100.00
2023-11-01T07:52:11.500Z,100.00
2023-11-01T07:54:39.091Z,100.00
2023-11-01T07:57:07.178Z,100.00
2023-11-01T07:59:34.954Z,100.00
2023-11-01T08:02:02.648Z,100.00
2023-11-01T08:04:30.658Z,100.00
2023-11-01T08:06:59.697Z,100.00
2023-11-01T08:09:27.640Z,100.00
2023-11-01T08:11:55.276Z,100.00
2023-11-01T08:14:22.879Z,100.00
2023-11-01T08:16:50.557Z,100.00
2023-11-01T08:19:18.246Z,100.00
2023-11-01T08:21:45.810Z,100.00
2023-11-01T08:24:14.825Z,100.00
2023-11-01T08:26:42.467Z,99.86
2023-11-01T08:29:10.968Z,98.73
2023-11-01T08:31:38.692Z,98.32
2023-11-01T08:34:06.422Z,98.58
2023-11-01T08:36:34.113Z,98.16
2023-11-01T08:39:01.716Z,99.15
2023-11-01T08:41:30.760Z,98.47
2023-11-01T08:43:58.415Z,98.05
2023-11-01T08:46:26.074Z,97.56
2023-11-01T08:48:53.677Z,98.41
2023-11-01T08:51:21.280Z,97.99
2023-11-01T08:53:48.970Z,98.71
2023-11-01T08:56:16.712Z,98.71
2023-11-01T08:58:45.678Z,98.07
2023-11-01T09:01:13.828Z,97.88
2023-11-01T09:03:41.572Z,97.96
2023-11-01T09:06:10.120Z,97.82
2023-11-01T09:08:37.892Z,97.71
2023-11-01T09:11:06.130Z,97.38
2023-11-01T09:13:33.764Z,97.29
2023-11-01T09:16:02.715Z,96.59
2023-11-01T09:18:30.443Z,95.42
2023-11-01T09:20:58.162Z,95.22
2023-11-01T09:23:25.846Z,94.72
2023-11-01T09:25:53.488Z,94.46
2023-11-01T09:28:21.102Z,93.91
2023-11-01T09:30:48.676Z,93.05
2023-11-01T09:33:17.664Z,92.60
2023-11-01T09:35:45.339Z,92.40
2023-11-01T09:38:12.998Z,91.67
2023-11-01T09:40:40.583Z,91.20
2023-11-01T09:43:09.579Z,91.89
2023-11-01T09:45:38.017Z,90.93
2023-11-01T09:48:06.477Z,90.78
2023-11-01T09:50:39.114Z,90.49
2023-11-01T09:53:06.790Z,91.10
2023-11-01T09:55:34.476Z,91.01
2023-11-01T09:58:02.623Z,90.77
2023-11-01T10:00:30.801Z,91.37
2023-11-01T10:02:58.788Z,91.64
2023-11-01T10:05:26.476Z,90.82
2023-11-01T10:07:55.485Z,91.26
2023-11-01T10:10:23.182Z,91.64
2023-11-01T10:12:50.785Z,91.37
2023-11-01T10:15:21.618Z,91.47
2023-11-01T10:17:52.653Z,91.59
2023-11-01T10:20:26.746Z,91.38
2023-11-01T10:22:55.957Z,91.69
2023-11-01T10:25:23.974Z,92.58
2023-11-01T10:27:52.256Z,92.35
2023-11-01T10:30:21.688Z,93.17
2023-11-01T10:32:56.964Z,92.62
2023-11-01T10:35:25.157Z,92.04
2023-11-01T10:38:01.288Z,91.96
2023-11-01T10:40:30.455Z,91.57
2023-11-01T10:42:59.908Z,91.76
2023-11-01T10:45:27.919Z,91.26
2023-11-01T10:47:56.020Z,90.72
2023-11-01T10:50:24.696Z,91.30
2023-11-01T10:52:52.814Z,90.85
2023-11-01T10:55:23.136Z,91.38
2023-11-01T10:57:52.453Z,92.74
2023-11-01T11:00:25.376Z,92.77
2023-11-01T11:02:55.708Z,91.84
2023-11-01T11:05:28.433Z,92.04
2023-11-01T11:07:58.006Z,92.58
2023-11-01T11:10:27.365Z,92.29
2023-11-01T11:13:26.347Z,92.23
2023-11-01T11:16:00.497Z,91.29
2023-11-01T11:18:30.493Z,91.90
2023-11-01T11:20:59.949Z,91.35
2023-11-01T11:23:34.378Z,90.83
2023-11-01T11:26:04.859Z,90.44
2023-11-01T11:28:43.757Z,90.16
2023-11-01T11:31:14.151Z,90.67
2023-11-01T11:34:13.696Z,90.26
2023-11-01T11:37:05.771Z,88.84
2023-11-01T11:40:08.998Z,89.27
2023-11-01T11:42:50.815Z,88.36
2023-11-01T11:45:29.076Z,87.63
2023-11-01T11:47:57.174Z,87.70
2023-11-01T11:50:25.015Z,87.58
2023-11-01T11:52:52.723Z,86.93
2023-11-01T11:55:41.665Z,85.86
2023-11-01T11:58:10.696Z,84.96
2023-11-01T12:00:38.374Z,84.81
2023-11-01T12:03:06.109Z,83.42
2023-11-01T12:05:35.155Z,83.16
2023-11-01T12:08:04.485Z,83.26
2023-11-01T12:10:32.098Z,83.80
2023-11-01T12:12:59.853Z,83.12
2023-11-01T12:15:30.747Z,82.94
2023-11-01T12:18:12.445Z,84.38
2023-11-01T12:20:40.184Z,84.14
2023-11-01T12:23:08.707Z,84.19
2023-11-01T12:25:36.475Z,84.63
2023-11-01T12:28:04.347Z,85.51
2023-11-01T12:30:34.160Z,85.69
2023-11-01T12:33:01.867Z,85.34
2023-11-01T12:35:29.613Z,85.67
2023-11-01T12:37:57.353Z,85.64
2023-11-01T12:40:27.188Z,86.71
2023-11-01T12:43:08.188Z,86.90
2023-11-01T12:45:37.134Z,86.64
2023-11-01T12:48:06.272Z,85.95
2023-11-01T12:50:36.451Z,85.79
2023-11-01T12:53:04.349Z,85.41
2023-11-01T12:55:34.238Z,84.73
2023-11-01T12:58:02.746Z,84.05
2023-11-01T13:00:31.710Z,83.47
2023-11-01T13:03:03.114Z,83.69
2023-11-01T13:05:31.197Z,82.88
2023-11-01T13:08:01.839Z,82.68
2023-11-01T13:10:30.232Z,83.42
2023-11-01T13:12:57.834Z,83.12
2023-11-01T13:15:26.267Z,81.71
2023-11-01T13:17:54.249Z,81.89
2023-11-01T13:20:23.372Z,81.85
2023-11-01T13:22:52.705Z,81.62
2023-11-01T13:25:21.703Z,81.67
2023-11-01T13:27:49.332Z,80.85
2023-11-01T13:30:17.083Z,81.23
2023-11-01T13:32:44.916Z,81.11
2023-11-01T13:35:12.638Z,81.10
2023-11-01T13:37:41.556Z,80.47
2023-11-01T13:40:11.634Z,79.97
2023-11-01T13:42:39.243Z,80.02
2023-11-01T13:45:08.233Z,79.73
2023-11-01T13:47:36.466Z,79.68
2023-11-01T13:50:04.350Z,79.89
2023-11-01T13:52:31.951Z,80.23
2023-11-01T13:55:01.089Z,80.02
2023-11-01T13:57:30.504Z,81.07
2023-11-01T13:59:58.166Z,81.49
2023-11-01T14:02:25.785Z,79.98
2023-11-01T14:04:53.411Z,79.44
2023-11-01T14:07:21.028Z,79.89
2023-11-01T14:09:49.206Z,79.87
2023-11-01T14:12:18.245Z,79.20
2023-11-01T14:14:45.859Z,79.04
2023-11-01T14:17:16.237Z,79.84
2023-11-01T14:19:44.041Z,80.15
2023-11-01T14:22:11.644Z,79.76
2023-11-01T14:24:39.926Z,79.85
2023-11-01T14:27:07.610Z,79.84
2023-11-01T14:29:36.713Z,78.91
2023-11-01T14:32:06.945Z,79.69
2023-11-01T14:34:34.604Z,79.11
2023-11-01T14:37:02.876Z,80.02
2023-11-01T14:39:30.392Z,79.67
2023-11-01T14:41:58.005Z,80.33
2023-11-01T14:44:25.575Z,80.28
2023-11-01T14:46:54.553Z,80.42
2023-11-01T14:49:22.122Z,80.03
2023-11-01T14:51:49.803Z,81.09
2023-11-01T14:54:17.463Z,80.50
2023-11-01T14:56:46.033Z,81.25
2023-11-01T14:59:13.735Z,80.80
2023-11-01T15:01:42.413Z,80.46
2023-11-01T15:04:11.629Z,79.44
2023-11-01T15:06:39.248Z,80.10
2023-11-01T15:09:07.644Z,79.33
2023-11-01T15:11:35.951Z,78.92
2023-11-01T15:14:03.666Z,78.83
2023-11-01T15:16:32.431Z,78.41
2023-11-01T15:19:00.085Z,78.99
2023-11-01T15:21:29.738Z,77.74
2023-11-01T15:23:58.233Z,78.16
2023-11-01T15:26:26.848Z,77.97
2023-11-01T15:28:54.853Z,77.55
2023-11-01T15:31:22.537Z,78.57
2023-11-01T15:33:50.359Z,77.77
2023-11-01T15:36:19.663Z,78.46
2023-11-01T15:38:48.667Z,78.62
2023-11-01T15:41:16.531Z,78.16
2023-11-01T15:43:44.211Z,79.26
2023-11-01T15:46:11.879Z,78.99
2023-11-01T15:48:42.028Z,78.60
2023-11-01T15:51:12.755Z,78.21
2023-11-01T15:53:40.880Z,77.86
2023-11-01T15:56:11.395Z,79.01
2023-11-01T15:58:39.970Z,79.48
2023-11-01T16:01:07.670Z,79.83
2023-11-01T16:03:35.421Z,79.54
2023-11-01T16:06:03.260Z,79.19
2023-11-01T16:08:30.877Z,80.02
2023-11-01T16:10:58.558Z,80.46
2023-11-01T16:13:28.712Z,80.67
2023-11-01T16:15:56.485Z,80.48
2023-11-01T16:18:24.228Z,80.80
2023-11-01T16:20:51.942Z,81.18
2023-11-01T16:23:19.719Z,80.69
2023-11-01T16:25:47.523Z,81.28
2023-11-01T16:28:15.240Z,81.02
2023-11-01T16:30:44.255Z,81.24
2023-11-01T16:33:11.906Z,81.76
2023-11-01T16:35:39.691Z,82.07
2023-11-01T16:38:06.707Z,81.91
2023-11-01T16:40:34.364Z,81.40
2023-11-01T16:43:02.697Z,81.80
2023-11-01T16:45:30.353Z,81.75
2023-11-01T16:47:59.445Z,81.41
2023-11-01T16:50:27.121Z,81.36
2023-11-01T16:52:55.881Z,82.00
2023-11-01T16:55:23.518Z,81.95
2023-11-01T16:57:51.788Z,80.78
2023-11-01T17:00:19.597Z,80.25
2023-11-01T17:02:50.772Z,80.37
2023-11-01T17:05:20.362Z,81.14
2023-11-01T17:07:48.090Z,80.16
2023-11-01T17:10:15.913Z,80.15
2023-11-01T17:12:43.486Z,79.97
2023-11-01T17:15:11.853Z,80.14
2023-11-01T17:17:42.933Z,79.40
2023-11-01T17:20:12.621Z,79.52
2023-11-01T17:22:56.519Z,79.46
2023-11-01T17:26:12.693Z,79.05
2023-11-01T17:28:40.706Z,79.81
2023-11-01T17:31:11.391Z,80.08
2023-11-01T17:33:40.973Z,79.75
2023-11-01T17:36:21.042Z,79.41
2023-11-01T17:38:50.158Z,79.91
2023-11-01T17:41:57.279Z,81.22
2023-11-01T17:44:27.371Z,82.21
2023-11-01T17:46:56.424Z,81.86
2023-11-01T17:49:57.981Z,82.52
2023-11-01T17:52:28.437Z,82.50
2023-11-01T17:54:58.076Z,81.30
2023-11-01T17:57:25.864Z,81.31
2023-11-01T17:59:53.674Z,80.91
2023-11-01T18:03:04.077Z,80.79
2023-11-01T18:05:36.667Z,81.37
2023-11-01T18:08:10.525Z,80.30
2023-11-01T18:10:42.849Z,79.13
2023-11-01T18:13:22.383Z,79.49
2023-11-01T18:15:51.122Z,78.88
2023-11-01T18:18:42.390Z,79.64
2023-11-01T18:21:11.659Z,78.87
2023-11-01T18:23:41.144Z,79.61
2023-11-01T18:26:17.403Z,79.31
2023-11-01T18:28:45.992Z,79.87
2023-11-01T18:31:22.992Z,80.28
2023-11-01T18:34:01.176Z,80.04
2023-11-01T18:36:30.029Z,81.63
2023-11-01T18:38:58.560Z,83.55
2023-11-01T18:41:29.207Z,86.49
2023-11-01T18:43:56.904Z,90.80
2023-11-01T18:46:25.333Z,92.75
2023-11-01T18:48:56.130Z,93.39
2023-11-01T18:51:43.292Z,95.00
2023-11-01T18:54:11.182Z,95.72
2023-11-01T18:56:41.998Z,97.17
2023-11-01T18:59:10.525Z,97.46
2023-11-01T19:01:41.390Z,98.82
2023-11-01T19:04:10.297Z,100.00
2023-11-01T19:06:39.124Z,100.00
2023-11-01T19:09:06.855Z,100.00
2023-11-01T19:11:34.747Z,100.00
2023-11-01T19:14:03.677Z,100.00
2023-11-01T19:16:31.249Z,100.00
2023-11-01T19:18:58.901Z,100.00
2023-11-01T19:21:26.561Z,100.00
2023-11-01T19:23:54.255Z,100.00
2023-11-01T19:26:22.460Z,100.00
2023-11-01T19:28:50.541Z,100.00
2023-11-01T19:31:21.967Z,100.00
2023-11-01T19:33:53.161Z,100.00
2023-11-01T19:36:21.287Z,100.00
2023-11-01T19:38:49.036Z,100.00
2023-11-01T19:41:17.777Z,100.00
2023-11-01T19:43:45.617Z,100.00
2023-11-01T19:46:13.301Z,100.00
2023-11-01T19:48:43.038Z,100.00
2023-11-01T19:51:11.457Z,100.00
2023-11-01T19:53:39.065Z,100.00
2023-11-01T19:56:06.863Z,100.00
2023-11-01T19:58:34.493Z,100.00
2023-11-01T20:01:02.168Z,100.00
2023-11-01T20:03:29.863Z,100.00
2023-11-01T20:05:59.516Z,100.00
2023-11-01T20:08:27.159Z,100.00
2023-11-01T20:10:54.846Z,100.00
2023-11-01T20:13:22.435Z,100.00
2023-11-01T20:15:50.009Z,100.00
2023-11-01T20:18:17.744Z,100.00
2023-11-01T20:20:45.448Z,100.00
2023-11-01T20:23:15.466Z,100.00
2023-11-01T20:25:43.248Z,100.00
2023-11-01T20:28:18.103Z,100.00
2023-11-01T20:30:46.059Z,100.00
2023-11-01T20:33:13.879Z,100.00
2023-11-01T20:35:41.639Z,100.00
2023-11-01T20:38:09.480Z,100.00
2023-11-01T20:40:38.502Z,100.00
2023-11-01T20:43:06.126Z,100.00
2023-11-01T20:45:38.326Z,100.00
2023-11-01T20:48:08.373Z,100.00
2023-11-01T20:50:36.206Z,100.00
2023-11-01T20:53:04.186Z,100.00
2023-11-01T20:55:31.798Z,100.00
2023-11-01T20:58:00.733Z,100.00
2023-11-01T21:00:28.380Z,100.00
2023-11-01T21:02:56.393Z,100.00
2023-11-01T21:05:24.145Z,99.80
2023-11-01T21:07:52.518Z,99.58
2023-11-01T21:10:20.429Z,99.24
2023-11-01T21:12:48.181Z,98.71
2023-11-01T21:15:17.217Z,98.14
2023-11-01T21:17:45.125Z,98.27
2023-11-01T21:20:13.519Z,97.99
2023-11-01T21:22:41.720Z,97.14
2023-11-01T21:25:10.837Z,97.11
2023-11-01T21:27:38.482Z,97.03
2023-11-01T21:30:07.172Z,96.99
2023-11-01T21:32:36.100Z,96.91
2023-11-01T21:35:04.291Z,97.54
2023-11-01T21:37:31.888Z,97.33
2023-11-01T21:39:59.504Z,97.48
2023-11-01T21:42:27.749Z,97.71
2023-11-01T21:44:55.360Z,97.83
2023-11-01T21:47:25.610Z,98.13
2023-11-01T21:49:54.609Z,98.13
2023-11-01T21:52:23.470Z,97.93
2023-11-01T21:54:52.244Z,97.61
2023-11-01T21:57:24.219Z,97.85
2023-11-01T21:59:51.881Z,97.97
2023-11-01T22:02:28.465Z,98.09
2023-11-01T22:04:57.439Z,98.36
2023-11-01T22:07:25.172Z,98.43
2023-11-01T22:09:56.690Z,98.07
2023-11-01T22:12:24.316Z,97.86
2023-11-01T22:14:52.211Z,95.54
2023-11-01T22:17:37.520Z,95.04
2023-11-01T22:20:09.400Z,95.70
2023-11-01T22:22:51.213Z,95.42
2023-11-01T22:25:27.573Z,95.82
2023-11-01T22:28:00.220Z,95.99
2023-11-01T22:30:29.708Z,95.63
2023-11-01T22:32:57.842Z,95.58
2023-11-01T22:35:36.858Z,95.66
2023-11-01T22:38:04.457Z,95.66
2023-11-01T22:40:33.572Z,95.68
2023-11-01T22:43:01.271Z,95.98
2023-11-01T22:45:28.881Z,95.88
2023-11-01T22:47:56.649Z,96.58
2023-11-01T22:50:24.285Z,96.63
2023-11-01T22:52:53.611Z,96.76
2023-11-01T22:55:21.269Z,96.96
2023-11-01T22:57:48.867Z,96.73
2023-11-01T23:00:29.002Z,97.45
2023-11-01T23:02:58.737Z,97.26
2023-11-01T23:05:26.786Z,98.06
2023-11-01T23:07:57.371Z,97.85
2023-11-01T23:10:25.833Z,98.49
2023-11-01T23:12:53.726Z,99.02
2023-11-01T23:15:21.314Z,99.53
2023-11-01T23:17:50.255Z,99.26
2023-11-01T23:20:22.791Z,99.36
2023-11-01T23:22:53.182Z,99.40
2023-11-01T23:25:27.904Z,99.07
2023-11-01T23:27:59.638Z,98.99
2023-11-01T23:30:41.775Z,99.23
2023-11-01T23:33:09.448Z,99.06
2023-11-01T23:35:45.099Z,99.44
2023-11-01T23:38:14.507Z,99.62
2023-11-01T23:40:45.780Z,99.67
2023-11-01T23:43:14.114Z,100.00
2023-11-01T23:46:17.087Z,100.00
2023-11-01T23:48:45.531Z,99.52
2023-11-01T23:51:13.550Z,99.75
2023-11-01T23:53:42.194Z,99.39
2023-11-01T23:56:23.982Z,99.03
2023-11-01T23:58:53.986Z,99.34
